Time;durP1;ratioP1;P1;durP2;ratioP2;P2;SDS_P1;SDS_P2;PMS_P1;PMS_P2;Temp;Humidity;BMP_temperature;BMP_pressure;BME280_temperature;BME280_humidity;BME280_pressure;Samples;Min_cycle;Max_cycle;Signal;HPM_P1;HPM_P2
2022/07/07 00:01:38;;;;;;;5.47;3.63;;;20.70;58.80;;;;;;4935343;28;20087;-74
2022/07/07 00:04:04;;;;;;;4.97;2.80;;;20.70;58.90;;;;;;4925043;29;20122;-76
2022/07/07 00:06:31;;;;;;;4.38;2.40;;;20.70;59.00;;;;;;4935066;28;20039;-77
2022/07/07 00:08:57;;;;;;;5.25;2.80;;;20.70;59.10;;;;;;4937034;28;20031;-76
2022/07/07 00:11:25;;;;;;;4.97;2.70;;;20.60;59.00;;;;;;4921754;28;20424;-77
2022/07/07 00:13:51;;;;;;;5.05;2.40;;;20.60;59.10;;;;;;4939079;28;20035;-76
2022/07/07 00:16:18;;;;;;;4.70;3.10;;;20.60;59.20;;;;;;4938373;28;20032;-76
2022/07/07 00:18:45;;;;;;;5.97;3.13;;;20.60;59.30;;;;;;4916817;29;20062;-76
2022/07/07 00:21:11;;;;;;;5.35;3.15;;;20.60;59.40;;;;;;4922124;28;20090;-76
2022/07/07 00:23:37;;;;;;;3.45;2.28;;;20.60;59.40;;;;;;4923205;29;20042;-76
2022/07/07 00:26:04;;;;;;;7.40;2.83;;;20.50;59.40;;;;;;4940365;28;20424;-76
2022/07/07 00:28:30;;;;;;;6.93;2.50;;;20.60;59.60;;;;;;4926443;29;20038;-75
2022/07/07 00:30:56;;;;;;;4.15;2.38;;;20.60;59.80;;;;;;4912657;29;20040;-76
2022/07/07 00:33:22;;;;;;;5.85;2.45;;;20.60;59.80;;;;;;4912640;28;20123;-75
2022/07/07 00:35:48;;;;;;;3.83;2.65;;;20.60;59.80;;;;;;4915304;28;20627;-77
2022/07/07 00:38:14;;;;;;;3.92;2.25;;;20.50;59.70;;;;;;4937757;28;20047;-76
2022/07/07 00:40:40;;;;;;;4.07;2.63;;;20.50;59.80;;;;;;4938643;28;20191;-76
2022/07/07 00:43:06;;;;;;;4.65;2.65;;;20.60;60.10;;;;;;4924246;28;20035;-75
2022/07/07 00:45:32;;;;;;;3.15;2.63;;;20.60;60.10;;;;;;4929948;28;20614;-76
2022/07/07 00:47:59;;;;;;;5.47;2.20;;;20.60;60.10;;;;;;4937545;28;20082;-78
2022/07/07 00:50:25;;;;;;;4.80;2.50;;;20.60;60.20;;;;;;4940021;28;20078;-77
2022/07/07 00:52:51;;;;;;;5.68;2.00;;;20.60;60.80;;;;;;4917582;28;20035;-76
2022/07/07 00:55:18;;;;;;;6.32;2.10;;;20.60;60.30;;;;;;4922076;29;20031;-77
2022/07/07 00:57:43;;;;;;;3.55;1.77;;;20.60;60.30;;;;;;4936975;28;20043;-77
2022/07/07 01:00:17;;;;;;;4.63;2.10;;;20.60;60.40;;;;;;4935295;28;20340;-75
2022/07/07 01:02:43;;;;;;;4.57;1.92;;;20.60;60.40;;;;;;4933250;28;20417;-77
2022/07/07 01:05:09;;;;;;;3.33;1.67;;;20.60;60.50;;;;;;4937204;28;20043;-76
2022/07/07 01:07:37;;;;;;;3.95;1.70;;;20.60;60.50;;;;;;4912981;29;20341;-76
2022/07/07 01:10:05;;;;;;;2.60;2.30;;;20.60;60.60;;;;;;4921878;28;20385;-76
2022/07/07 01:12:49;;;;;;;4.07;2.05;;;20.60;60.60;;;;;;4931576;28;20039;-75
2022/07/07 01:15:15;;;;;;;4.25;1.63;;;20.60;60.80;;;;;;4919692;28;20027;-75
2022/07/07 01:17:42;;;;;;;3.08;2.03;;;20.60;60.60;;;;;;4935454;28;20162;-76
2022/07/07 01:20:10;;;;;;;4.20;1.98;;;20.60;60.70;;;;;;4934772;29;20082;-76
2022/07/07 01:22:37;;;;;;;4.72;2.22;;;20.70;60.90;;;;;;4933218;28;20035;-76
2022/07/07 01:25:05;;;;;;;3.38;1.80;;;20.60;60.80;;;;;;4918862;28;20069;-77
2022/07/07 01:27:31;;;;;;;4.53;2.25;;;20.60;60.80;;;;;;4934775;28;20036;-75
2022/07/07 01:29:58;;;;;;;4.55;2.20;;;20.70;61.00;;;;;;4933928;28;20031;-75
2022/07/07 01:32:26;;;;;;;5.97;2.28;;;20.70;61.00;;;;;;4935388;28;20084;-77
2022/07/07 01:34:52;;;;;;;4.20;1.83;;;20.70;61.10;;;;;;4936018;28;20036;-76
2022/07/07 01:37:20;;;;;;;3.45;2.22;;;20.70;61.10;;;;;;4917301;29;20070;-75
2022/07/07 01:39:47;;;;;;;5.25;2.35;;;20.70;61.10;;;;;;4938170;28;20039;-75
2022/07/07 01:42:13;;;;;;;3.90;1.80;;;20.70;61.20;;;;;;4935059;28;20032;-75
2022/07/07 01:44:41;;;;;;;2.08;1.70;;;20.70;61.20;;;;;;4937365;28;20063;-76
2022/07/07 01:47:09;;;;;;;4.88;2.47;;;20.60;61.10;;;;;;4935535;28;20027;-76
2022/07/07 01:49:35;;;;;;;3.53;1.67;;;20.70;61.30;;;;;;4929879;29;20108;-76
2022/07/07 01:52:03;;;;;;;2.88;1.88;;;20.70;61.30;;;;;;4948942;28;20031;-76
2022/07/07 01:54:30;;;;;;;4.35;1.80;;;20.60;61.20;;;;;;4942150;28;20046;-76
2022/07/07 01:56:56;;;;;;;4.22;1.88;;;20.60;61.20;;;;;;4935461;28;20040;-76
2022/07/07 01:59:22;;;;;;;3.88;1.60;;;20.60;61.20;;;;;;4944791;28;20034;-75
2022/07/07 02:01:48;;;;;;;3.33;1.60;;;20.60;61.20;;;;;;4921098;29;20036;-76
2022/07/07 02:04:14;;;;;;;4.03;1.80;;;20.60;61.90;;;;;;4943450;28;20023;-74
2022/07/07 02:06:40;;;;;;;3.40;2.22;;;20.60;61.40;;;;;;4925445;29;20038;-75
2022/07/07 02:09:07;;;;;;;2.67;1.80;;;20.60;61.40;;;;;;4924171;29;20038;-76
2022/07/07 02:11:33;;;;;;;1.90;1.48;;;20.60;61.50;;;;;;4943298;28;20039;-76
2022/07/07 02:13:59;;;;;;;3.38;1.85;;;20.60;61.50;;;;;;4925828;28;20092;-74
2022/07/07 02:16:26;;;;;;;2.83;1.50;;;20.50;61.40;;;;;;4936006;28;20023;-76
2022/07/07 02:18:54;;;;;;;4.50;2.13;;;20.50;61.50;;;;;;4943642;28;20509;-76
2022/07/07 02:21:21;;;;;;;2.42;1.20;;;20.50;61.60;;;;;;4945843;28;20154;-76
2022/07/07 02:23:49;;;;;;;3.33;1.40;;;20.50;61.60;;;;;;4940473;28;20103;-75
2022/07/07 02:26:15;;;;;;;3.38;1.40;;;20.40;61.50;;;;;;4944121;28;20042;-75
2022/07/07 02:28:42;;;;;;;2.28;1.20;;;20.40;61.60;;;;;;4947250;28;20031;-76
2022/07/07 02:31:09;;;;;;;2.88;1.20;;;20.30;61.50;;;;;;4925631;28;20035;-75
2022/07/07 02:33:35;;;;;;;2.47;1.27;;;20.30;61.50;;;;;;4925701;29;20027;-76
2022/07/07 02:36:03;;;;;;;5.90;1.67;;;20.30;61.60;;;;;;4924785;29;20264;-76
2022/07/07 02:38:29;;;;;;;2.42;1.17;;;20.30;61.60;;;;;;4943448;28;20032;-76
2022/07/07 02:40:55;;;;;;;3.72;1.55;;;20.30;61.70;;;;;;4938993;28;20426;-76
2022/07/07 02:43:22;;;;;;;2.30;1.35;;;20.20;61.60;;;;;;4928428;29;20031;-76
2022/07/07 02:45:49;;;;;;;2.95;1.55;;;20.20;61.70;;;;;;4942384;28;20508;-75
2022/07/07 02:48:21;;;;;;;5.35;1.35;;;20.20;61.70;;;;;;4919818;28;20031;-77
2022/07/07 02:50:47;;;;;;;1.33;0.95;;;20.20;61.80;;;;;;4942300;28;20046;-76
2022/07/07 02:53:13;;;;;;;1.30;0.80;;;20.20;61.80;;;;;;4938154;28;20087;-75
2022/07/07 02:55:40;;;;;;;2.17;1.45;;;20.20;61.80;;;;;;4925313;28;20106;-75
2022/07/07 02:58:07;;;;;;;3.85;1.13;;;20.10;61.70;;;;;;4926213;29;20043;-75
2022/07/07 03:00:34;;;;;;;4.03;1.20;;;20.10;61.70;;;;;;4926424;28;20031;-75
2022/07/07 03:03:05;;;;;;;1.80;0.90;;;20.10;61.80;;;;;;4927140;28;20576;-76
2022/07/07 03:05:32;;;;;;;1.98;1.05;;;20.10;61.80;;;;;;4943662;28;20038;-75
2022/07/07 03:07:58;;;;;;;2.55;0.80;;;20.10;61.80;;;;;;4922294;28;20031;-75
2022/07/07 03:10:25;;;;;;;1.52;0.98;;;20.10;61.90;;;;;;4927472;28;20158;-75
2022/07/07 03:12:51;;;;;;;1.73;1.00;;;20.00;61.70;;;;;;4924346;28;20023;-76
2022/07/07 03:15:17;;;;;;;1.98;0.90;;;20.00;61.80;;;;;;4939368;28;20031;-76
2022/07/07 03:17:44;;;;;;;3.00;1.17;;;20.00;61.80;;;;;;4939631;28;20050;-76
2022/07/07 03:20:11;;;;;;;1.65;0.88;;;20.00;61.90;;;;;;4944609;28;20489;-78
2022/07/07 03:22:38;;;;;;;0.90;0.75;;;19.90;61.70;;;;;;4894623;28;20038;-76
2022/07/07 03:25:05;;;;;;;2.63;1.30;;;19.90;61.80;;;;;;4945735;28;20386;-76
2022/07/07 03:27:32;;;;;;;3.33;0.93;;;19.90;61.90;;;;;;4948181;28;20074;-76
2022/07/07 03:29:58;;;;;;;2.53;1.20;;;19.90;61.90;;;;;;4953233;28;20114;-76
2022/07/07 03:32:24;;;;;;;1.80;0.85;;;19.80;61.70;;;;;;4940330;28;20058;-76
2022/07/07 03:34:49;;;;;;;1.60;0.60;;;19.80;61.70;;;;;;4962774;28;20046;-76
2022/07/07 03:37:16;;;;;;;1.05;0.70;;;19.80;61.80;;;;;;4957881;28;20031;-76
2022/07/07 03:39:42;;;;;;;0.98;0.77;;;19.70;61.60;;;;;;4944555;29;20054;-77
2022/07/07 03:42:08;;;;;;;3.25;1.10;;;19.70;61.60;;;;;;4930829;28;20039;-78
2022/07/07 03:44:34;;;;;;;0.85;0.50;;;19.70;62.30;;;;;;4941427;28;20528;-76
2022/07/07 03:47:00;;;;;;;0.82;0.57;;;19.70;61.70;;;;;;4941691;28;20032;-76
2022/07/07 03:49:26;;;;;;;2.15;0.60;;;19.60;61.50;;;;;;4932071;28;20090;-76
2022/07/07 03:51:51;;;;;;;0.90;0.70;;;19.60;61.60;;;;;;4920666;28;20593;-76
2022/07/07 03:54:18;;;;;;;0.93;0.50;;;19.60;61.60;;;;;;4941021;28;20429;-76
2022/07/07 03:56:44;;;;;;;0.80;0.60;;;19.60;61.50;;;;;;4940478;28;20031;-78
2022/07/07 03:59:10;;;;;;;1.10;0.70;;;19.60;61.50;;;;;;4942523;28;20036;-76
2022/07/07 04:01:36;;;;;;;0.93;0.65;;;19.60;61.50;;;;;;4927439;28;20058;-76
2022/07/07 04:04:04;;;;;;;1.23;0.80;;;19.60;61.50;;;;;;4940889;28;20066;-77
2022/07/07 04:06:31;;;;;;;1.80;0.65;;;19.60;61.40;;;;;;4922609;29;20480;-77
2022/07/07 04:08:58;;;;;;;1.58;0.70;;;19.60;61.40;;;;;;4936539;28;20039;-77
2022/07/07 04:11:24;;;;;;;1.38;0.52;;;19.60;61.40;;;;;;4938846;28;20028;-76
2022/07/07 04:13:53;;;;;;;1.92;0.75;;;19.70;61.50;;;;;;4913922;28;20027;-76
2022/07/07 04:16:19;;;;;;;1.65;1.05;;;19.70;61.40;;;;;;4939472;28;20138;-76
2022/07/07 04:18:44;;;;;;;2.40;0.98;;;19.70;61.40;;;;;;4917336;29;20087;-77
2022/07/07 04:21:10;;;;;;;1.58;0.68;;;19.70;61.30;;;;;;4909634;28;20035;-76
2022/07/07 04:23:36;;;;;;;1.83;1.08;;;19.70;61.20;;;;;;4939902;28;20043;-76
2022/07/07 04:26:02;;;;;;;0.73;0.60;;;19.70;61.20;;;;;;4941126;28;20122;-76
2022/07/07 04:28:29;;;;;;;1.52;0.80;;;19.70;61.10;;;;;;4938513;28;20494;-76
2022/07/07 04:30:56;;;;;;;1.20;0.70;;;19.70;61.00;;;;;;4939287;28;20040;-76
2022/07/07 04:33:22;;;;;;;1.00;0.90;;;19.70;61.00;;;;;;4938481;28;20028;-76
2022/07/07 04:35:49;;;;;;;1.10;0.80;;;19.70;60.90;;;;;;4941956;28;20039;-75
2022/07/07 04:38:15;;;;;;;0.98;0.90;;;19.80;61.10;;;;;;4939967;28;20031;-75
2022/07/07 04:40:41;;;;;;;1.48;0.80;;;19.80;61.00;;;;;;4942844;28;20553;-75
2022/07/07 04:43:07;;;;;;;1.33;0.70;;;19.80;61.00;;;;;;4937208;28;20520;-76
2022/07/07 04:45:34;;;;;;;1.10;0.50;;;19.70;60.70;;;;;;4936381;28;20047;-76
2022/07/07 04:48:00;;;;;;;2.38;0.95;;;19.80;60.80;;;;;;4921609;28;20619;-76
2022/07/07 04:50:26;;;;;;;1.23;1.10;;;19.80;60.80;;;;;;4929826;28;20023;-76
2022/07/07 04:52:55;;;;;;;1.20;0.70;;;19.90;60.90;;;;;;4933800;28;20031;-75
2022/07/07 04:55:21;;;;;;;0.57;0.52;;;19.90;60.80;;;;;;4937952;28;20381;-76
2022/07/07 04:57:47;;;;;;;1.85;1.10;;;19.90;60.70;;;;;;4917858;29;20680;-77
2022/07/07 05:00:14;;;;;;;0.55;0.55;;;19.90;60.70;;;;;;4917563;28;20110;-77
2022/07/07 05:02:39;;;;;;;2.70;0.95;;;19.90;60.60;;;;;;4934927;28;20447;-75
2022/07/07 05:05:06;;;;;;;0.60;0.60;;;19.90;60.50;;;;;;4938770;28;20031;-77
2022/07/07 05:07:33;;;;;;;0.65;0.65;;;20.00;60.60;;;;;;4934392;28;20158;-76
2022/07/07 05:09:59;;;;;;;1.00;0.88;;;20.00;60.50;;;;;;4915136;28;20033;-75
2022/07/07 05:12:25;;;;;;;1.85;1.02;;;20.00;60.40;;;;;;4920464;28;20035;-76
2022/07/07 05:14:51;;;;;;;1.67;0.93;;;20.00;60.30;;;;;;4933390;28;20028;-76
2022/07/07 05:17:17;;;;;;;1.48;1.05;;;20.10;60.40;;;;;;4937944;28;20477;-77
2022/07/07 05:19:43;;;;;;;1.92;0.77;;;20.10;60.30;;;;;;4922540;29;20035;-75
2022/07/07 05:22:09;;;;;;;3.80;1.00;;;20.20;60.40;;;;;;4930897;28;20155;-77
2022/07/07 05:24:35;;;;;;;1.77;0.80;;;20.20;60.30;;;;;;4935884;28;20256;-75
2022/07/07 05:27:01;;;;;;;1.98;0.90;;;20.30;60.30;;;;;;4939743;28;20863;-75
2022/07/07 05:29:27;;;;;;;2.75;1.30;;;20.30;60.20;;;;;;4936101;28;20031;-75
2022/07/07 05:31:53;;;;;;;0.90;0.77;;;20.40;60.20;;;;;;4936638;28;20037;-76
2022/07/07 05:34:20;;;;;;;1.15;0.73;;;20.40;60.10;;;;;;4925729;28;20122;-75
2022/07/07 05:36:46;;;;;;;1.35;0.80;;;20.40;60.00;;;;;;4923873;28;20041;-76
2022/07/07 05:39:15;;;;;;;1.85;1.05;;;20.50;60.00;;;;;;4913869;29;20497;-76
2022/07/07 05:41:42;;;;;;;1.58;0.90;;;20.50;59.90;;;;;;4936922;28;20082;-76
2022/07/07 05:44:08;;;;;;;1.17;0.80;;;20.60;60.00;;;;;;4940219;28;20143;-76
2022/07/07 05:46:34;;;;;;;1.50;0.70;;;20.60;59.80;;;;;;4935734;28;20111;-76
2022/07/07 05:49:00;;;;;;;1.25;0.95;;;20.60;59.80;;;;;;4937156;28;20047;-76
2022/07/07 05:51:26;;;;;;;1.35;1.00;;;20.70;59.80;;;;;;4922161;28;20026;-76
2022/07/07 05:53:52;;;;;;;1.48;0.80;;;20.70;59.60;;;;;;4919745;28;20540;-75
2022/07/07 05:56:18;;;;;;;2.53;0.95;;;20.70;59.50;;;;;;4938398;28;20043;-77
2022/07/07 05:58:44;;;;;;;2.15;1.40;;;20.80;59.50;;;;;;4937143;28;20134;-77
2022/07/07 06:01:11;;;;;;;1.17;0.60;;;20.90;59.60;;;;;;4926590;28;20470;-78
2022/07/07 06:03:38;;;;;;;1.92;1.17;;;20.90;59.50;;;;;;4942791;28;20030;-76
2022/07/07 06:06:04;;;;;;;1.00;0.80;;;21.00;59.50;;;;;;4936575;28;20043;-78
2022/07/07 06:08:30;;;;;;;1.25;0.90;;;21.00;59.30;;;;;;4918941;28;20486;-75
2022/07/07 06:10:56;;;;;;;1.15;0.95;;;21.10;59.30;;;;;;4942315;28;20549;-79
2022/07/07 06:13:22;;;;;;;1.30;1.00;;;21.10;59.10;;;;;;4922721;29;20039;-78
2022/07/07 06:15:48;;;;;;;1.17;0.70;;;21.20;59.20;;;;;;4943521;28;20397;-77
2022/07/07 06:18:14;;;;;;;0.90;0.80;;;21.30;59.20;;;;;;4937698;28;20084;-77
2022/07/07 06:20:40;;;;;;;1.77;1.00;;;21.30;59.10;;;;;;4940440;28;20028;-78
2022/07/07 06:23:06;;;;;;;2.05;1.08;;;21.40;59.10;;;;;;4933358;28;20446;-78
2022/07/07 06:25:32;;;;;;;1.55;1.02;;;21.50;59.10;;;;;;4925565;28;20015;-77
2022/07/07 06:27:58;;;;;;;1.20;0.90;;;21.50;59.00;;;;;;4921563;28;20525;-78
2022/07/07 06:30:25;;;;;;;1.00;0.65;;;21.60;59.00;;;;;;4943065;28;20149;-76
2022/07/07 06:32:51;;;;;;;0.73;0.70;;;21.60;58.80;;;;;;4942677;28;20036;-78
2022/07/07 06:35:19;;;;;;;1.15;0.70;;;21.70;58.80;;;;;;4926933;29;20410;-77
2022/07/07 06:37:45;;;;;;;1.55;1.08;;;21.80;58.80;;;;;;4941888;28;20565;-77
2022/07/07 06:40:12;;;;;;;1.75;1.10;;;21.80;58.60;;;;;;4937338;28;20042;-78
2022/07/07 06:42:38;;;;;;;1.15;1.00;;;21.90;58.70;;;;;;4941116;28;20096;-77
2022/07/07 06:45:13;;;;;;;1.60;1.20;;;21.90;58.60;;;;;;4944712;28;20043;-77
2022/07/07 06:47:39;;;;;;;5.68;1.60;;;21.90;58.50;;;;;;4941028;28;20035;-76
2022/07/07 06:50:05;;;;;;;2.95;1.23;;;21.90;58.40;;;;;;4925447;28;20082;-77
2022/07/07 06:52:32;;;;;;;2.75;1.10;;;22.00;58.50;;;;;;4941255;28;20121;-78
2022/07/07 06:54:58;;;;;;;1.80;1.45;;;22.00;58.40;;;;;;4945234;28;20115;-79
2022/07/07 06:57:24;;;;;;;1.50;1.00;;;22.10;58.40;;;;;;4915957;28;20118;-78
2022/07/07 06:59:50;;;;;;;1.83;1.17;;;22.10;58.30;;;;;;4938462;28;20457;-76
2022/07/07 07:02:16;;;;;;;1.30;1.20;;;22.10;58.20;;;;;;4958343;28;20230;-79
2022/07/07 07:04:42;;;;;;;2.00;1.40;;;22.20;58.20;;;;;;4928305;28;20481;-78
2022/07/07 07:07:24;;;;;;;2.22;1.35;;;22.20;58.10;;;;;;4942016;28;20389;-80
2022/07/07 07:09:55;;;;;;;2.13;1.00;;;22.30;58.20;;;;;;4901241;29;20052;-77
2022/07/07 07:12:21;;;;;;;1.58;1.10;;;22.30;58.10;;;;;;4882164;29;21003;-81
2022/07/07 07:14:47;;;;;;;1.77;0.82;;;22.40;58.10;;;;;;4880887;29;20276;-82
2022/07/07 07:17:13;;;;;;;4.90;1.63;;;22.40;58.00;;;;;;4884579;29;20040;-80
2022/07/07 07:19:38;;;;;;;4.75;1.40;;;22.50;58.00;;;;;;4882736;29;20552;-78
2022/07/07 07:22:04;;;;;;;2.20;1.00;;;22.50;57.70;;;;;;4887838;29;20040;-78
2022/07/07 07:24:30;;;;;;;2.53;1.15;;;22.50;57.40;;;;;;4884388;29;20120;-78
2022/07/07 07:26:56;;;;;;;2.60;1.60;;;22.50;57.30;;;;;;4881539;29;20111;-80
2022/07/07 07:29:22;;;;;;;5.03;1.75;;;22.50;57.30;;;;;;4888166;29;20124;-79
2022/07/07 07:31:48;;;;;;;2.72;1.40;;;22.40;57.00;;;;;;4881326;29;20040;-82
2022/07/07 07:34:14;;;;;;;2.25;1.23;;;22.50;57.10;;;;;;4885943;29;20088;-78
2022/07/07 07:36:40;;;;;;;4.88;2.00;;;22.50;57.00;;;;;;4882595;29;20507;-79
2022/07/07 07:39:06;;;;;;;1.38;1.15;;;22.50;56.90;;;;;;4881440;29;20048;-78
2022/07/07 07:41:32;;;;;;;2.15;1.23;;;22.50;56.80;;;;;;4879463;29;20037;-79
2022/07/07 07:43:58;;;;;;;3.00;1.13;;;22.50;56.60;;;;;;4879544;29;20037;-79
2022/07/07 07:46:24;;;;;;;3.28;1.55;;;22.60;56.60;;;;;;4886500;29;20044;-79
2022/07/07 07:48:50;;;;;;;2.28;1.20;;;22.60;56.40;;;;;;4874917;29;20080;-83
2022/07/07 07:51:16;;;;;;;2.08;1.35;;;22.60;56.30;;;;;;4878177;29;20127;-79
2022/07/07 07:53:42;;;;;;;2.40;1.42;;;22.70;56.40;;;;;;4876998;29;20032;-77
2022/07/07 07:56:08;;;;;;;4.43;1.80;;;22.60;56.20;;;;;;4872314;29;20379;-82
2022/07/07 07:58:34;;;;;;;3.10;1.38;;;22.60;56.10;;;;;;4878916;29;20245;-79
2022/07/07 08:01:00;;;;;;;2.90;1.83;;;22.60;56.10;;;;;;4877127;29;20064;-83
2022/07/07 08:03:26;;;;;;;1.52;1.42;;;22.60;56.10;;;;;;4874102;29;20441;-78
2022/07/07 08:05:53;;;;;;;2.75;1.40;;;22.60;56.10;;;;;;4876201;29;20076;-79
2022/07/07 08:08:18;;;;;;;3.35;1.30;;;22.60;56.00;;;;;;4884568;29;20403;-78
2022/07/07 08:10:45;;;;;;;2.65;1.70;;;22.60;56.10;;;;;;4896614;29;20031;-79
2022/07/07 08:13:11;;;;;;;1.83;1.50;;;22.60;56.30;;;;;;4876077;29;20036;-78
2022/07/07 08:15:37;;;;;;;7.28;1.73;;;22.70;56.70;;;;;;4891015;29;20096;-78
2022/07/07 08:18:03;;;;;;;3.28;1.35;;;22.80;57.00;;;;;;4891600;29;20107;-80
2022/07/07 08:20:29;;;;;;;1.55;1.30;;;22.90;57.40;;;;;;4886884;29;20286;-79
2022/07/07 08:22:55;;;;;;;2.95;1.77;;;23.00;57.60;;;;;;4889867;29;20251;-79
2022/07/07 08:25:21;;;;;;;4.60;2.38;;;23.10;57.80;;;;;;4883356;29;20361;-78
2022/07/07 08:27:48;;;;;;;4.05;1.90;;;23.20;58.00;;;;;;4858235;29;20063;-78
2022/07/07 08:30:14;;;;;;;2.90;1.50;;;23.30;58.20;;;;;;4889154;29;20028;-78
2022/07/07 08:32:43;;;;;;;4.40;2.50;;;23.30;58.30;;;;;;4874532;29;20028;-78
2022/07/07 08:35:10;;;;;;;9.15;1.63;;;23.30;58.40;;;;;;4875989;29;20528;-78
2022/07/07 08:37:36;;;;;;;4.72;1.92;;;23.40;58.40;;;;;;4888226;29;20054;-75
2022/07/07 08:40:03;;;;;;;2.78;1.30;;;23.40;58.20;;;;;;4889093;29;20562;-76
2022/07/07 08:42:29;;;;;;;2.00;1.73;;;23.50;57.90;;;;;;4883509;29;20041;-78
2022/07/07 08:44:55;;;;;;;3.50;1.85;;;23.60;57.80;;;;;;4887436;29;20055;-79
2022/07/07 08:47:21;;;;;;;2.40;1.60;;;23.70;57.80;;;;;;4880885;29;20479;-79
2022/07/07 08:49:48;;;;;;;3.28;1.83;;;23.80;57.80;;;;;;4882587;29;20040;-78
2022/07/07 08:52:14;;;;;;;1.55;1.30;;;23.90;57.60;;;;;;4893975;29;20396;-77
2022/07/07 08:54:42;;;;;;;3.92;1.77;;;24.10;57.50;;;;;;4883008;29;20172;-79
2022/07/07 08:57:09;;;;;;;5.18;1.60;;;24.20;57.40;;;;;;4887382;29;20194;-77
2022/07/07 08:59:35;;;;;;;2.30;1.52;;;24.40;57.20;;;;;;4888524;29;20036;-76
2022/07/07 09:02:02;;;;;;;3.97;1.80;;;24.70;57.10;;;;;;4889529;29;20453;-78
2022/07/07 09:04:29;;;;;;;1.58;1.40;;;24.90;56.90;;;;;;4887325;29;20405;-77
2022/07/07 09:06:55;;;;;;;3.95;1.65;;;25.10;56.60;;;;;;4889376;29;20147;-78
2022/07/07 09:09:38;;;;;;;2.65;1.88;;;25.20;56.30;;;;;;4890890;29;20507;-78
2022/07/07 09:12:05;;;;;;;2.15;1.65;;;25.40;56.00;;;;;;4875963;29;20123;-77
2022/07/07 09:14:52;;;;;;;3.05;1.50;;;25.50;55.80;;;;;;4883773;29;20123;-78
2022/07/07 09:17:29;;;;;;;12.63;2.03;;;25.50;55.20;;;;;;4891818;29;20127;-78
2022/07/07 09:19:59;;;;;;;3.45;2.05;;;25.50;55.10;;;;;;4895371;29;20109;-78
2022/07/07 09:22:50;;;;;;;3.00;1.60;;;25.50;55.10;;;;;;4879810;29;20427;-77
2022/07/07 09:25:19;;;;;;;1.75;1.63;;;25.50;54.90;;;;;;4892542;29;20139;-78
2022/07/07 09:27:59;;;;;;;4.18;1.73;;;25.40;55.00;;;;;;4889490;29;20051;-78
2022/07/07 09:30:33;;;;;;;3.22;1.70;;;25.50;54.80;;;;;;4885408;29;20422;-78
2022/07/07 09:33:06;;;;;;;3.78;2.00;;;25.60;54.80;;;;;;4889685;29;20206;-77
2022/07/07 09:38:25;;;;;;;2.60;1.25;;;25.80;54.40;;;;;;4885308;29;20134;-76
2022/07/07 09:41:04;;;;;;;2.50;1.30;;;26.00;54.10;;;;;;4888707;29;20122;-79
2022/07/07 09:43:33;;;;;;;1.98;1.17;;;26.30;53.70;;;;;;4876185;29;20043;-77
2022/07/07 09:46:09;;;;;;;3.15;1.58;;;26.60;53.20;;;;;;4890991;29;20424;-75
2022/07/07 09:48:36;;;;;;;2.38;1.77;;;26.80;52.80;;;;;;4892336;29;20063;-76
2022/07/07 09:51:11;;;;;;;1.85;1.38;;;26.90;52.60;;;;;;4891048;29;20453;-78
2022/07/07 09:54:10;;;;;;;3.38;1.40;;;27.00;52.20;;;;;;4889392;29;20029;-76
2022/07/07 09:56:41;;;;;;;2.90;1.40;;;27.00;51.80;;;;;;4890051;29;20044;-78
2022/07/07 09:59:09;;;;;;;2.47;1.38;;;27.20;51.80;;;;;;4883339;29;20045;-77
2022/07/07 10:01:37;;;;;;;3.90;1.67;;;27.20;51.70;;;;;;4893486;29;20028;-77
2022/07/07 10:04:05;;;;;;;3.15;1.20;;;27.20;51.50;;;;;;4877088;29;20037;-78
2022/07/07 10:06:33;;;;;;;2.22;1.42;;;27.20;51.40;;;;;;4893051;29;20052;-78
2022/07/07 10:09:08;;;;;;;3.80;1.45;;;27.30;51.10;;;;;;4882088;29;20052;-80
2022/07/07 10:11:42;;;;;;;1.02;0.88;;;27.50;50.80;;;;;;4885749;29;21360;-76
2022/07/07 10:14:22;;;;;;;5.03;2.08;;;27.60;50.60;;;;;;4879290;29;20029;-76
2022/07/07 10:16:50;;;;;;;2.25;1.30;;;27.70;50.30;;;;;;4881008;29;20037;-77
2022/07/07 10:19:18;;;;;;;4.45;1.20;;;27.80;50.50;;;;;;4891297;29;20107;-76
2022/07/07 10:21:50;;;;;;;2.92;1.20;;;27.80;50.40;;;;;;4860924;29;20037;-75
2022/07/07 10:24:18;;;;;;;2.17;0.90;;;28.00;50.20;;;;;;4883898;29;20064;-77
2022/07/07 10:26:53;;;;;;;1.67;1.10;;;28.20;50.50;;;;;;4880026;29;20677;-77
2022/07/07 10:29:38;;;;;;;3.53;1.60;;;28.30;49.60;;;;;;4887646;29;20041;-76
2022/07/07 10:32:07;;;;;;;4.25;1.40;;;28.20;49.40;;;;;;4892924;29;20040;-77
2022/07/07 10:34:39;;;;;;;2.25;1.08;;;28.20;49.60;;;;;;4871452;29;20032;-78
2022/07/07 10:37:10;;;;;;;2.47;1.30;;;28.10;49.10;;;;;;4906001;29;20054;-78
2022/07/07 10:39:48;;;;;;;3.13;1.30;;;28.00;48.90;;;;;;4896558;29;20024;-78
2022/07/07 10:42:17;;;;;;;4.00;1.30;;;28.00;48.40;;;;;;4908479;29;20032;-79
2022/07/07 10:44:49;;;;;;;4.68;1.33;;;27.80;48.40;;;;;;4913503;29;20059;-78
2022/07/07 10:47:36;;;;;;;1.98;1.27;;;27.60;48.40;;;;;;4903461;29;20036;-78
2022/07/07 10:50:03;;;;;;;4.45;1.48;;;27.50;48.80;;;;;;4911352;29;20040;-78
2022/07/07 10:52:40;;;;;;;2.50;1.35;;;27.60;48.50;;;;;;4910729;29;20048;-80
2022/07/07 10:55:07;;;;;;;2.28;1.30;;;27.60;48.60;;;;;;4899546;29;20041;-79
2022/07/07 10:57:49;;;;;;;2.00;1.20;;;27.70;47.80;;;;;;4909205;29;20072;-80
2022/07/07 11:00:28;;;;;;;4.15;1.45;;;27.90;47.30;;;;;;4899252;29;20495;-79
2022/07/07 11:02:57;;;;;;;4.15;1.50;;;27.90;47.10;;;;;;4905273;29;20032;-79
2022/07/07 11:05:29;;;;;;;3.08;1.30;;;27.80;47.00;;;;;;4901928;29;20033;-77
2022/07/07 11:08:06;;;;;;;3.65;1.58;;;27.70;47.00;;;;;;4908824;29;20052;-81
2022/07/07 11:10:44;;;;;;;2.50;1.52;;;27.60;47.10;;;;;;4912135;29;20045;-78
2022/07/07 11:13:18;;;;;;;4.18;1.83;;;27.40;46.90;;;;;;4907560;29;20020;-77
2022/07/07 11:15:46;;;;;;;3.42;1.58;;;27.30;46.90;;;;;;4905970;29;20043;-77
2022/07/07 11:18:19;;;;;;;1.67;0.98;;;27.20;47.10;;;;;;4918122;29;20052;-79
2022/07/07 11:20:58;;;;;;;4.95;1.40;;;27.10;47.10;;;;;;4901110;29;20092;-79
2022/07/07 11:23:50;;;;;;;3.35;1.27;;;27.10;46.90;;;;;;4911633;28;20041;-78
2022/07/07 11:26:20;;;;;;;2.72;1.20;;;27.10;46.90;;;;;;4914058;29;20115;-79
2022/07/07 11:28:46;;;;;;;3.63;1.80;;;27.00;46.90;;;;;;4918462;29;20024;-78
2022/07/07 11:31:13;;;;;;;3.33;1.40;;;27.00;46.90;;;;;;4896570;29;20134;-77
2022/07/07 11:33:40;;;;;;;2.58;1.80;;;27.10;46.80;;;;;;4899681;29;20000;-77
2022/07/07 11:36:17;;;;;;;1.67;1.17;;;27.30;46.60;;;;;;4918677;29;20036;-77
2022/07/07 11:38:46;;;;;;;2.65;1.10;;;27.60;46.00;;;;;;4910228;29;20044;-78
2022/07/07 11:41:15;;;;;;;1.83;1.10;;;27.90;45.70;;;;;;4876607;29;20033;-78
2022/07/07 11:43:41;;;;;;;2.58;1.35;;;28.20;45.40;;;;;;4880845;29;20064;-78
2022/07/07 11:46:07;;;;;;;2.08;1.20;;;28.30;45.00;;;;;;4891865;29;20615;-78
2022/07/07 11:48:38;;;;;;;3.55;1.20;;;28.50;44.80;;;;;;4905610;29;20044;-78
2022/07/07 11:51:06;;;;;;;2.17;1.25;;;28.50;44.40;;;;;;4904885;29;20507;-77
2022/07/07 11:53:34;;;;;;;3.95;1.30;;;28.70;44.50;;;;;;4900342;29;20033;-82
2022/07/07 11:56:00;;;;;;;2.55;0.93;;;28.70;44.30;;;;;;4890216;29;20198;-80
2022/07/07 11:58:29;;;;;;;3.38;1.60;;;28.70;44.10;;;;;;4897025;29;20044;-79
2022/07/07 12:00:56;;;;;;;1.58;1.05;;;28.80;44.00;;;;;;4879148;29;20036;-79
2022/07/07 12:03:30;;;;;;;1.88;1.25;;;28.80;43.90;;;;;;4881375;29;20051;-78
2022/07/07 12:05:57;;;;;;;1.38;1.00;;;28.80;43.80;;;;;;4883385;29;20080;-79
2022/07/07 12:08:35;;;;;;;2.85;1.00;;;28.80;43.80;;;;;;4900456;29;20196;-78
2022/07/07 12:11:02;;;;;;;2.33;1.00;;;28.80;43.60;;;;;;4862459;29;20066;-80
2022/07/07 12:13:32;;;;;;;1.77;0.90;;;28.80;43.60;;;;;;4884347;29;20029;-81
2022/07/07 12:16:03;;;;;;;1.83;0.93;;;28.80;43.50;;;;;;4886131;29;20136;-78
2022/07/07 12:18:38;;;;;;;1.33;1.17;;;28.80;43.30;;;;;;4878258;29;20068;-78
2022/07/07 12:21:07;;;;;;;1.67;1.02;;;28.90;43.30;;;;;;4888099;29;20670;-77
2022/07/07 12:23:44;;;;;;;2.00;1.00;;;29.00;43.30;;;;;;4887579;29;20112;-77
2022/07/07 12:26:20;;;;;;;1.88;1.20;;;29.30;43.20;;;;;;4883171;29;20032;-78
2022/07/07 12:28:47;;;;;;;1.05;0.70;;;29.40;42.90;;;;;;4873424;29;20076;-77
2022/07/07 12:31:17;;;;;;;3.28;1.10;;;29.70;43.00;;;;;;4881381;29;20080;-79
2022/07/07 12:33:44;;;;;;;2.40;1.00;;;29.90;42.80;;;;;;4885665;29;20036;-79
2022/07/07 12:36:15;;;;;;;2.42;1.15;;;30.10;42.60;;;;;;4879606;29;20115;-82
2022/07/07 12:38:46;;;;;;;1.83;1.00;;;30.40;42.50;;;;;;4889511;29;20116;-80
2022/07/07 12:41:26;;;;;;;1.38;0.90;;;30.50;42.40;;;;;;4873633;29;20556;-78
2022/07/07 12:43:55;;;;;;;1.48;0.95;;;30.70;42.30;;;;;;4867295;29;20060;-76
2022/07/07 12:46:32;;;;;;;2.25;1.42;;;30.90;42.30;;;;;;4860493;29;20056;-79
2022/07/07 12:48:59;;;;;;;1.38;1.02;;;31.10;42.20;;;;;;4864557;29;20318;-77
2022/07/07 12:51:26;;;;;;;3.63;1.27;;;31.20;42.10;;;;;;4863330;29;20033;-81
2022/07/07 12:53:53;;;;;;;1.58;1.30;;;31.40;42.10;;;;;;4863409;29;20548;-82
2022/07/07 12:56:20;;;;;;;1.67;1.50;;;31.50;42.00;;;;;;4868172;29;20176;-77